Time;durP1;ratioP1;P1;durP2;ratioP2;P2;SDS_P1;SDS_P2;PMS_P1;PMS_P2;Temp;Humidity;BMP_temperature;BMP_pressure;BME280_temperature;BME280_humidity;BME280_pressure;Samples;Min_cycle;Max_cycle;Signal;HPM_P1;HPM_P2
2022/04/05 00:00:39;;;;;;;;;;;;;;;;;;5097645;28;20278;-50
2022/04/05 00:03:05;;;;;;;;;;;;;;;;;;5097726;28;19915;-48
2022/04/05 00:05:30;;;;;;;;;;;;;;;;;;5097729;28;19912;-48
2022/04/05 00:07:55;;;;;;;;;;;;;;;;;;5097537;28;19909;-48
2022/04/05 00:10:21;;;;;;;;;;;;;;;;;;5097407;28;19908;-50
2022/04/05 00:12:46;;;;;;;;;;;;;;;;;;5097529;28;19953;-49
2022/04/05 00:15:11;;;;;;;;;;;;;;;;;;5097224;28;19916;-51
2022/04/05 00:17:36;;;;;;;;;;;;;;;;;;5097410;28;19908;-48
2022/04/05 00:20:01;;;;;;;;;;;;;;;;;;5097447;28;19915;-49
2022/04/05 00:22:27;;;;;;;;;;;;;;;;;;5096847;28;19908;-51
2022/04/05 00:24:52;;;;;;;;;;;;;;;;;;5097426;28;20350;-48
2022/04/05 00:27:17;;;;;;;;;;;;;;;;;;5097257;28;19912;-48
2022/04/05 00:29:42;;;;;;;;;;;;;;;;;;5097336;28;19916;-48
2022/04/05 00:32:08;;;;;;;;;;;;;;;;;;5096923;28;19920;-48
2022/04/05 00:34:34;;;;;;;;;;;;;;;;;;5097102;28;19908;-49
2022/04/05 00:36:59;;;;;;;;;;;;;;;;;;5096767;28;19915;-49
2022/04/05 00:39:24;;;;;;;;;;;;;;;;;;5096732;28;20003;-48
2022/04/05 00:41:49;;;;;;;;;;;;;;;;;;5096783;28;19912;-47
2022/04/05 00:44:14;;;;;;;;;;;;;;;;;;5096838;28;19963;-47
2022/04/05 00:46:39;;;;;;;;;;;;;;;;;;5096679;28;19947;-49
2022/04/05 00:49:04;;;;;;;;;;;;;;;;;;5096795;28;19916;-49
2022/04/05 00:51:30;;;;;;;;;;;;;;;;;;5096662;28;19916;-49
2022/04/05 00:53:55;;;;;;;;;;;;;;;;;;5096658;28;20057;-49
2022/04/05 00:56:20;;;;;;;;;;;;;;;;;;5096866;28;19911;-49
2022/04/05 00:58:45;;;;;;;;;;;;;;;;;;5096639;28;19920;-49
2022/04/05 01:01:15;;;;;;;;;;;;;;;;;;5096840;28;20006;-49
2022/04/05 01:03:40;;;;;;;;;;;;;;;;;;5096706;28;19908;-49
2022/04/05 01:06:06;;;;;;;;;;;;;;;;;;5096554;28;19909;-49
2022/04/05 01:08:31;;;;;;;;;;;;;;;;;;5096324;28;19908;-50
2022/04/05 01:10:56;;;;;;;;;;;;;;;;;;5096314;28;20271;-48
2022/04/05 01:13:21;;;;;;;;;;;;;;;;;;5096312;28;20406;-49
2022/04/05 01:15:46;;;;;;;;;;;;;;;;;;5096289;28;20366;-48
2022/04/05 01:18:11;;;;;;;;;;;;;;;;;;5096334;28;19908;-50
2022/04/05 01:20:37;;;;;;;;;;;;;;;;;;5096198;28;19915;-48
2022/04/05 01:23:02;;;;;;;;;;;;;;;;;;5095983;28;19908;-49
2022/04/05 01:25:27;;;;;;;;;;;;;;;;;;5096169;28;20033;-47
2022/04/05 01:27:52;;;;;;;;;;;;;;;;;;5096083;28;20003;-48
2022/04/05 01:30:17;;;;;;;;;;;;;;;;;;5095914;28;20270;-47
2022/04/05 01:32:42;;;;;;;;;;;;;;;;;;5095781;28;20351;-48
2022/04/05 01:35:08;;;;;;;;;;;;;;;;;;5095903;28;19912;-50
2022/04/05 01:37:33;;;;;;;;;;;;;;;;;;5095776;28;20431;-49
2022/04/05 01:39:59;;;;;;;;;;;;;;;;;;5095837;28;19915;-51
2022/04/05 01:42:24;;;;;;;;;;;;;;;;;;5095631;28;19914;-49
2022/04/05 01:44:49;;;;;;;;;;;;;;;;;;5095722;28;19967;-51
2022/04/05 01:47:14;;;;;;;;;;;;;;;;;;5095705;28;19908;-49
2022/04/05 01:49:39;;;;;;;;;;;;;;;;;;5095740;28;19912;-51
2022/04/05 01:52:05;;;;;;;;;;;;;;;;;;5095594;28;20281;-50
2022/04/05 01:54:30;;;;;;;;;;;;;;;;;;5095639;28;19912;-51
2022/04/05 01:56:55;;;;;;;;;;;;;;;;;;5095519;28;19908;-49
2022/04/05 01:59:20;;;;;;;;;;;;;;;;;;5094891;28;19927;-52
2022/04/05 02:01:45;;;;;;;;;;;;;;;;;;5095347;28;19908;-52
2022/04/05 02:04:10;;;;;;;;;;;;;;;;;;5095458;28;19908;-49
2022/04/05 02:06:35;;;;;;;;;;;;;;;;;;5095362;28;19908;-49
2022/04/05 02:09:00;;;;;;;;;;;;;;;;;;5095460;28;19955;-52
2022/04/05 02:11:26;;;;;;;;;;;;;;;;;;5095135;28;19912;-50
2022/04/05 02:13:51;;;;;;;;;;;;;;;;;;5095299;28;19908;-50
2022/04/05 02:16:16;;;;;;;;;;;;;;;;;;5095163;28;19933;-52
2022/04/05 02:18:41;;;;;;;;;;;;;;;;;;5095057;28;20401;-50
2022/04/05 02:21:06;;;;;;;;;;;;;;;;;;5095190;28;19908;-50
2022/04/05 02:23:31;;;;;;;;;;;;;;;;;;5076869;28;19916;-50
2022/04/05 02:25:56;;;;;;;;;;;;;;;;;;5095080;28;20271;-52
2022/04/05 02:28:21;;;;;;;;;;;;;;;;;;5095017;28;19908;-51
2022/04/05 02:30:47;;;;;;;;;;;;;;;;;;5095050;28;19916;-49
2022/04/05 02:33:12;;;;;;;;;;;;;;;;;;5094957;28;19987;-49
2022/04/05 02:35:37;;;;;;;;;;;;;;;;;;5094865;28;20434;-49
2022/04/05 02:38:03;;;;;;;;;;;;;;;;;;5095002;28;19916;-49
2022/04/05 02:40:28;;;;;;;;;;;;;;;;;;5094767;28;20012;-50
2022/04/05 02:42:53;;;;;;;;;;;;;;;;;;5094671;28;20355;-50
2022/04/05 02:45:18;;;;;;;;;;;;;;;;;;5094568;28;19908;-49
2022/04/05 02:47:44;;;;;;;;;;;;;;;;;;5095011;28;19972;-48
2022/04/05 02:50:09;;;;;;;;;;;;;;;;;;5094923;28;19912;-51
2022/04/05 02:52:35;;;;;;;;;;;;;;;;;;5095046;28;19916;-51
2022/04/05 02:55:00;;;;;;;;;;;;;;;;;;5094728;28;19912;-49
2022/04/05 02:57:25;;;;;;;;;;;;;;;;;;5094874;28;19908;-49
2022/04/05 02:59:50;;;;;;;;;;;;;;;;;;5094343;28;19942;-49
2022/04/05 03:02:15;;;;;;;;;;;;;;;;;;5094491;28;19908;-51
2022/04/05 03:04:40;;;;;;;;;;;;;;;;;;5094599;28;19908;-51
2022/04/05 03:07:05;;;;;;;;;;;;;;;;;;5094493;28;20003;-50
2022/04/05 03:09:30;;;;;;;;;;;;;;;;;;5094568;28;19933;-49
2022/04/05 03:11:56;;;;;;;;;;;;;;;;;;5094313;28;19912;-49
2022/04/05 03:14:21;;;;;;;;;;;;;;;;;;5094638;28;19912;-50
2022/04/05 03:16:46;;;;;;;;;;;;;;;;;;5094524;28;19948;-50
2022/04/05 03:19:12;;;;;;;;;;;;;;;;;;5094345;28;19953;-49
2022/04/05 03:21:37;;;;;;;;;;;;;;;;;;5094495;28;20046;-49
2022/04/05 03:24:02;;;;;;;;;;;;;;;;;;5094412;28;19908;-50
2022/04/05 03:26:27;;;;;;;;;;;;;;;;;;5094209;28;19935;-51
2022/04/05 03:28:52;;;;;;;;;;;;;;;;;;5094338;28;19908;-49
2022/04/05 03:31:17;;;;;;;;;;;;;;;;;;5094426;28;20011;-51
2022/04/05 03:33:43;;;;;;;;;;;;;;;;;;5094400;28;19953;-48
2022/04/05 03:36:08;;;;;;;;;;;;;;;;;;5094280;28;19908;-51
2022/04/05 03:38:33;;;;;;;;;;;;;;;;;;5076284;28;19915;-50
2022/04/05 03:40:58;;;;;;;;;;;;;;;;;;5094688;28;19969;-52
2022/04/05 03:43:23;;;;;;;;;;;;;;;;;;5094496;28;19908;-51
2022/04/05 03:45:49;;;;;;;;;;;;;;;;;;5094250;28;20148;-52
2022/04/05 03:48:15;;;;;;;;;;;;;;;;;;5094260;28;19982;-51
2022/04/05 03:50:40;;;;;;;;;;;;;;;;;;5094230;28;20019;-50
2022/04/05 03:53:05;;;;;;;;;;;;;;;;;;5093999;28;20389;-52
2022/04/05 03:55:30;;;;;;;;;;;;;;;;;;5094337;28;20286;-50
2022/04/05 03:57:55;;;;;;;;;;;;;;;;;;5097739;28;19915;-50
2022/04/05 04:00:21;;;;;;;;;;;;;;;;;;5097825;28;20286;-49
2022/04/05 04:02:46;;;;;;;;;;;;;;;;;;5097691;28;19955;-49
2022/04/05 04:05:16;;;;;;;;;;;;;;;;;;5097639;28;20267;-48
2022/04/05 04:07:41;;;;;;;;;;;;;;;;;;5097895;28;19954;-49
2022/04/05 04:10:06;;;;;;;;;;;;;;;;;;5097492;28;19908;-50
2022/04/05 04:12:32;;;;;;;;;;;;;;;;;;5097290;28;19912;-49
2022/04/05 04:14:57;;;;;;;;;;;;;;;;;;5097599;28;19969;-49
2022/04/05 04:17:23;;;;;;;;;;;;;;;;;;5097728;28;19918;-49
2022/04/05 04:19:48;;;;;;;;;;;;;;;;;;5097577;28;19908;-50
2022/04/05 04:22:13;;;;;;;;;;;;;;;;;;5097353;28;19908;-49
2022/04/05 04:24:38;;;;;;;;;;;;;;;;;;5097319;28;19908;-49
2022/04/05 04:27:03;;;;;;;;;;;;;;;;;;5097180;28;19908;-49
2022/04/05 04:29:28;;;;;;;;;;;;;;;;;;5097114;28;19908;-48
2022/04/05 04:31:54;;;;;;;;;;;;;;;;;;5097129;28;19916;-48
2022/04/05 04:34:19;;;;;;;;;;;;;;;;;;5097107;28;19912;-50
2022/04/05 04:36:44;;;;;;;;;;;;;;;;;;5097046;28;19915;-50
2022/04/05 04:39:09;;;;;;;;;;;;;;;;;;5097312;28;19915;-49
2022/04/05 04:41:35;;;;;;;;;;;;;;;;;;5096770;28;19908;-48
2022/04/05 04:44:00;;;;;;;;;;;;;;;;;;5097061;28;19904;-48
2022/04/05 04:46:25;;;;;;;;;;;;;;;;;;5096837;28;19951;-49
2022/04/05 04:48:50;;;;;;;;;;;;;;;;;;5096936;28;19917;-48
2022/04/05 04:51:15;;;;;;;;;;;;;;;;;;5096732;28;19916;-48
2022/04/05 04:53:40;;;;;;;;;;;;;;;;;;5096724;28;19908;-49
2022/04/05 04:56:05;;;;;;;;;;;;;;;;;;5096555;28;19963;-48
2022/04/05 04:58:31;;;;;;;;;;;;;;;;;;5096355;28;19917;-48
2022/04/05 05:00:57;;;;;;;;;;;;;;;;;;5096468;28;20348;-48
2022/04/05 05:03:22;;;;;;;;;;;;;;;;;;5096411;28;19911;-49
2022/04/05 05:05:47;;;;;;;;;;;;;;;;;;5096359;28;19915;-47
2022/04/05 05:08:12;;;;;;;;;;;;;;;;;;5095940;28;19916;-48
2022/04/05 05:10:37;;;;;;;;;;;;;;;;;;5096107;28;19939;-48
2022/04/05 05:13:02;;;;;;;;;;;;;;;;;;5096281;28;19915;-49
2022/04/05 05:15:27;;;;;;;;;;;;;;;;;;5096047;28;19912;-48
2022/04/05 05:17:55;;;;;;;;;;;;;;;;;;5096328;28;19908;-48
2022/04/05 05:20:20;;;;;;;;;;;;;;;;;;5096072;28;19909;-49
2022/04/05 05:22:45;;;;;;;;;;;;;;;;;;5096014;28;19984;-48
2022/04/05 05:25:10;;;;;;;;;;;;;;;;;;5096295;28;19920;-50
2022/04/05 05:27:37;;;;;;;;;;;;;;;;;;5101713;27;19999;-49
2022/04/05 05:30:03;;;;;;;;;;;;;;;;;;5107249;27;19912;-51
2022/04/05 05:32:28;;;;;;;;;;;;;;;;;;5098721;28;19926;-52
2022/04/05 05:34:53;;;;;;;;;;;;;;;;;;5099612;27;19981;-52
2022/04/05 05:37:18;;;;;;;;;;;;;;;;;;5097356;28;19914;-54
2022/04/05 05:39:43;;;;;;;;;;;;;;;;;;5099265;27;19912;-51
2022/04/05 05:42:08;;;;;;;;;;;;;;;;;;5099064;28;20168;-52
2022/04/05 05:44:33;;;;;;;;;;;;;;;;;;5102212;28;19957;-52
2022/04/05 05:46:58;;;;;;;;;;;;;;;;;;5097772;28;20011;-53
2022/04/05 05:49:24;;;;;;;;;;;;;;;;;;5097122;28;19913;-52
2022/04/05 05:51:49;;;;;;;;;;;;;;;;;;5104190;27;19920;-52
2022/04/05 05:54:14;;;;;;;;;;;;;;;;;;5089765;28;20666;-53
2022/04/05 05:56:39;;;;;;;;;;;;;;;;;;5092733;27;19920;-51
2022/04/05 05:59:04;;;;;;;;;;;;;;;;;;5089596;28;20390;-52
2022/04/05 06:01:30;;;;;;;;;;;;;;;;;;5086260;28;19919;-51
2022/04/05 06:03:55;;;;;;;;;;;;;;;;;;5076542;27;20057;-52
2022/04/05 06:06:21;;;;;;;;;;;;;;;;;;5073708;27;19968;-56
2022/04/05 06:08:46;;;;;;;;;;;;;;;;;;5076674;27;19924;-52
2022/04/05 06:11:12;;;;;;;;;;;;;;;;;;5074076;27;19983;-51
2022/04/05 06:13:37;;;;;;;;;;;;;;;;;;5041177;27;20014;-53
2022/04/05 06:16:02;;;;;;;;;;;;;;;;;;5016547;28;19919;-52
2022/04/05 06:18:28;;;;;;;;;;;;;;;;;;4991064;28;19920;-50
2022/04/05 06:20:53;;;;;;;;;;;;;;;;;;4956405;28;19958;-51
2022/04/05 06:23:18;;;;;;;;;;;;;;;;;;4934005;27;21097;-51
2022/04/05 06:25:43;;;;;;;;;;;;;;;;;;4860278;28;19926;-53
2022/04/05 06:28:08;;;;;;;;;;;;;;;;;;4932154;27;20560;-52
2022/04/05 06:30:33;;;;;;;;;;;;;;;;;;4987115;27;20455;-51
2022/04/05 06:32:58;;;;;;;;;;;;;;;;;;5014631;28;19927;-52
2022/04/05 06:35:23;;;;;;;;;;;;;;;;;;5023438;28;20801;-51
2022/04/05 06:37:49;;;;;;;;;;;;;;;;;;5024891;27;20357;-50
2022/04/05 06:40:14;;;;;;;;;;;;;;;;;;5018555;28;19920;-51
2022/04/05 06:42:43;;;;;;;;;;;;;;;;;;5004263;28;19927;-52
2022/04/05 06:45:08;;;;;;;;;;;;;;;;;;5017980;28;20437;-50
2022/04/05 06:47:33;;;;;;;;;;;;;;;;;;5016816;28;20070;-49
2022/04/05 06:49:58;;;;;;;;;;;;;;;;;;4993651;28;19967;-56
2022/04/05 06:52:23;;;;;;;;;;;;;;;;;;4991518;27;20038;-51
2022/04/05 06:54:48;;;;;;;;;;;;;;;;;;4989915;28;19984;-52
2022/04/05 06:57:14;;;;;;;;;;;;;;;;;;4962139;28;19920;-55
2022/04/05 06:59:39;;;;;;;;;;;;;;;;;;4940949;28;20005;-52
2022/04/05 07:02:04;;;;;;;;;;;;;;;;;;4924582;28;19920;-52
2022/04/05 07:04:29;;;;;;;;;;;;;;;;;;4906447;28;20062;-53
2022/04/05 07:06:54;;;;;;;;;;;;;;;;;;4888790;28;19920;-54
2022/04/05 07:09:20;;;;;;;;;;;;;;;;;;4830754;28;20072;-55
2022/04/05 07:11:45;;;;;;;;;;;;;;;;;;4800871;28;19961;-50
2022/04/05 07:14:11;;;;;;;;;;;;;;;;;;4797556;28;19926;-55
2022/04/05 07:16:36;;;;;;;;;;;;;;;;;;4794006;28;20830;-56
2022/04/05 07:19:01;;;;;;;;;;;;;;;;;;4799027;28;22020;-50
2022/04/05 07:21:26;;;;;;;;;;;;;;;;;;4774033;28;23170;-51
2022/04/05 07:23:51;;;;;;;;;;;;;;;;;;4735710;28;20441;-53
2022/04/05 07:26:16;;;;;;;;;;;;;;;;;;4645068;28;23448;-55
2022/04/05 07:28:41;;;;;;;;;;;;;;;;;;4693158;28;20991;-53
2022/04/05 07:31:07;;;;;;;;;;;;;;;;;;4668465;27;20760;-54
2022/04/05 07:33:32;;;;;;;;;;;;;;;;;;4744465;27;19943;-50
2022/04/05 07:35:57;;;;;;;;;;;;;;;;;;4777899;27;19927;-53
2022/04/05 07:38:24;;;;;;;;;;;;;;;;;;4768719;27;20870;-53
2022/04/05 07:40:50;;;;;;;;;;;;;;;;;;4814335;27;21126;-53
2022/04/05 07:43:15;;;;;;;;;;;;;;;;;;4781302;27;20470;-56
2022/04/05 07:45:40;;;;;;;;;;;;;;;;;;4826382;27;22933;-55
2022/04/05 07:48:05;;;;;;;;;;;;;;;;;;4775164;27;20197;-52
2022/04/05 07:50:30;;;;;;;;;;;;;;;;;;4790873;28;21357;-53
2022/04/05 07:52:55;;;;;;;;;;;;;;;;;;4793810;28;21828;-53
2022/04/05 07:55:20;;;;;;;;;;;;;;;;;;4802119;27;21237;-55
2022/04/05 07:57:46;;;;;;;;;;;;;;;;;;4837534;22;20009;-53
2022/04/05 08:00:11;;;;;;;;;;;;;;;;;;4783259;28;20069;-53
2022/04/05 08:02:37;;;;;;;;;;;;;;;;;;4802394;28;22766;-52
2022/04/05 08:05:02;;;;;;;;;;;;;;;;;;4818679;28;20110;-54
2022/04/05 08:07:27;;;;;;;;;;;;;;;;;;4803342;28;20636;-54
2022/04/05 08:09:52;;;;;;;;;;;;;;;;;;4776936;28;21684;-53
2022/04/05 08:12:17;;;;;;;;;;;;;;;;;;4707682;28;19925;-54
2022/04/05 08:14:43;;;;;;;;;;;;;;;;;;4761560;28;20025;-56
2022/04/05 08:17:08;;;;;;;;;;;;;;;;;;4678983;28;23540;-53
2022/04/05 08:19:33;;;;;;;;;;;;;;;;;;4728750;28;20003;-53
2022/04/05 08:21:58;;;;;;;;;;;;;;;;;;4783261;28;20688;-55
2022/04/05 08:24:23;;;;;;;;;;;;;;;;;;4765320;28;19920;-52
2022/04/05 08:26:49;;;;;;;;;;;;;;;;;;4697059;28;20648;-53
2022/04/05 08:29:14;;;;;;;;;;;;;;;;;;4749528;28;20592;-52
2022/04/05 08:31:39;;;;;;;;;;;;;;;;;;4815780;28;19931;-51
2022/04/05 08:34:04;;;;;;;;;;;;;;;;;;4837419;28;19925;-54
2022/04/05 08:36:30;;;;;;;;;;;;;;;;;;4868940;28;20073;-55
2022/04/05 08:38:55;;;;;;;;;;;;;;;;;;4862855;28;24761;-55
2022/04/05 08:41:20;;;;;;;;;;;;;;;;;;4864860;28;20829;-52
2022/04/05 08:43:45;;;;;;;;;;;;;;;;;;4871404;28;20948;-51
2022/04/05 08:46:10;;;;;;;;;;;;;;;;;;4872241;28;22060;-53
2022/04/05 08:48:35;;;;;;;;;;;;;;;;;;4860972;28;29654;-54
2022/04/05 08:51:01;;;;;;;;;;;;;;;;;;4839262;28;19924;-53
2022/04/05 08:53:28;;;;;;;;;;;;;;;;;;4873044;28;20046;-51
2022/04/05 08:55:53;;;;;;;;;;;;;;;;;;4880798;28;21148;-52
2022/04/05 08:58:18;;;;;;;;;;;;;;;;;;4874561;28;20935;-56
2022/04/05 09:00:44;;;;;;;;;;;;;;;;;;4861532;28;19924;-53
2022/04/05 09:03:09;;;;;;;;;;;;;;;;;;4854860;28;19920;-51
2022/04/05 09:05:34;;;;;;;;;;;;;;;;;;4866155;28;20006;-56
2022/04/05 09:07:59;;;;;;;;;;;;;;;;;;4855878;28;19928;-55
2022/04/05 09:10:24;;;;;;;;;;;;;;;;;;4878111;28;20015;-51
2022/04/05 09:12:50;;;;;;;;;;;;;;;;;;4882202;28;20112;-54
2022/04/05 09:15:15;;;;;;;;;;;;;;;;;;4853208;28;19963;-58
2022/04/05 09:17:40;;;;;;;;;;;;;;;;;;4839865;28;21821;-52
2022/04/05 09:20:05;;;;;;;;;;;;;;;;;;4775955;28;22158;-52
2022/04/05 09:22:30;;;;;;;;;;;;;;;;;;4740254;28;19921;-53
2022/04/05 09:24:55;;;;;;;;;;;;;;;;;;4713102;28;23995;-53
2022/04/05 09:27:21;;;;;;;;;;;;;;;;;;4747312;28;20075;-55
2022/04/05 09:29:51;;;;;;;;;;;;;;;;;;4755733;28;19921;-55
2022/04/05 09:32:16;;;;;;;;;;;;;;;;;;4795333;28;26602;-54
2022/04/05 09:34:41;;;;;;;;;;;;;;;;;;4843501;28;19920;-55
2022/04/05 09:37:06;;;;;;;;;;;;;;;;;;4894060;28;19920;-55
2022/04/05 09:39:31;;;;;;;;;;;;;;;;;;4920253;28;19999;-54
2022/04/05 09:41:56;;;;;;;;;;;;;;;;;;4910029;28;20047;-54
2022/04/05 09:44:21;;;;;;;;;;;;;;;;;;4917866;28;19928;-52
2022/04/05 09:46:50;;;;;;;;;;;;;;;;;;4929816;28;23884;-55
2022/04/05 09:49:15;;;;;;;;;;;;;;;;;;4929052;28;19921;-52
2022/04/05 09:51:40;;;;;;;;;;;;;;;;;;4911435;28;20397;-54
2022/04/05 09:54:05;;;;;;;;;;;;;;;;;;4904361;28;19939;-55
2022/04/05 09:56:31;;;;;;;;;;;;;;;;;;4916204;28;21164;-55
2022/04/05 09:58:56;;;;;;;;;;;;;;;;;;4914210;28;20063;-51
2022/04/05 10:01:21;;;;;;;;;;;;;;;;;;4874366;28;20645;-55
2022/04/05 10:03:46;;;;;;;;;;;;;;;;;;4877046;28;19969;-55
2022/04/05 10:06:11;;;;;;;;;;;;;;;;;;4901374;28;19924;-53
2022/04/05 10:08:36;;;;;;;;;;;;;;;;;;4876536;28;20047;-54
2022/04/05 10:11:02;;;;;;;;;;;;;;;;;;4890239;28;20943;-51
2022/04/05 10:13:27;;;;;;;;;;;;;;;;;;4842945;28;21217;-55
2022/04/05 10:15:52;;;;;;;;;;;;;;;;;;4831749;28;20694;-54
2022/04/05 10:18:19;;;;;;;;;;;;;;;;;;4838511;28;19921;-54
2022/04/05 10:20:45;;;;;;;;;;;;;;;;;;4857735;28;19928;-53
2022/04/05 10:23:10;;;;;;;;;;;;;;;;;;4904280;28;20042;-52
2022/04/05 10:25:35;;;;;;;;;;;;;;;;;;4914203;28;19920;-53
2022/04/05 10:28:00;;;;;;;;;;;;;;;;;;4943225;28;20005;-54
2022/04/05 10:30:25;;;;;;;;;;;;;;;;;;4909399;28;20643;-54
2022/04/05 10:32:51;;;;;;;;;;;;;;;;;;4921520;28;20042;-52
2022/04/05 10:35:16;;;;;;;;;;;;;;;;;;4934223;28;19933;-52
2022/04/05 10:37:41;;;;;;;;;;;;;;;;;;4941468;28;19979;-57
2022/04/05 10:40:10;;;;;;;;;;;;;;;;;;4958341;28;19974;-55
2022/04/05 10:42:35;;;;;;;;;;;;;;;;;;4944371;28;19921;-53
2022/04/05 10:45:00;;;;;;;;;;;;;;;;;;4945712;28;19927;-53
2022/04/05 10:47:25;;;;;;;;;;;;;;;;;;4965494;28;19920;-55
2022/04/05 10:49:51;;;;;;;;;;;;;;;;;;4968498;28;20470;-55
2022/04/05 10:52:16;;;;;;;;;;;;;;;;;;4967135;28;21960;-54
2022/04/05 10:54:42;;;;;;;;;;;;;;;;;;4956456;28;20540;-53
2022/04/05 10:57:08;;;;;;;;;;;;;;;;;;4971450;28;19947;-52
2022/04/05 10:59:33;;;;;;;;;;;;;;;;;;4966977;28;19928;-56
2022/04/05 11:01:58;;;;;;;;;;;;;;;;;;4959680;28;19920;-52
2022/04/05 11:04:24;;;;;;;;;;;;;;;;;;4935408;28;19921;-53
2022/04/05 11:06:49;;;;;;;;;;;;;;;;;;4951955;28;21029;-56
2022/04/05 11:09:14;;;;;;;;;;;;;;;;;;4950753;28;19927;-55
2022/04/05 11:11:39;;;;;;;;;;;;;;;;;;4979862;28;19925;-55
2022/04/05 11:14:04;;;;;;;;;;;;;;;;;;4963255;28;19920;-52
2022/04/05 11:16:29;;;;;;;;;;;;;;;;;;4952291;28;20677;-52
2022/04/05 11:18:54;;;;;;;;;;;;;;;;;;4950191;28;19921;-53
2022/04/05 11:21:19;;;;;;;;;;;;;;;;;;4937130;28;20010;-57
2022/04/05 11:23:44;;;;;;;;;;;;;;;;;;4938566;28;20418;-52
2022/04/05 11:26:10;;;;;;;;;;;;;;;;;;4940248;28;20663;-55
2022/04/05 11:28:35;;;;;;;;;;;;;;;;;;4930119;28;21375;-52
2022/04/05 11:31:02;;;;;;;;;;;;;;;;;;4895913;28;19921;-52
2022/04/05 11:33:27;;;;;;;;;;;;;;;;;;4883378;28;20563;-53
2022/04/05 11:35:53;;;;;;;;;;;;;;;;;;4937315;28;19928;-53
2022/04/05 11:38:18;;;;;;;;;;;;;;;;;;4950845;28;19944;-55
2022/04/05 11:40:43;;;;;;;;;;;;;;;;;;4963998;28;19981;-55
2022/04/05 11:43:08;;;;;;;;;;;;;;;;;;4970568;28;20615;-53
2022/04/05 11:45:33;;;;;;;;;;;;;;;;;;4969348;28;19920;-53
2022/04/05 11:47:59;;;;;;;;;;;;;;;;;;4971600;28;19921;-54
2022/04/05 11:50:24;;;;;;;;;;;;;;;;;;4952271;28;19954;-55
2022/04/05 11:52:49;;;;;;;;;;;;;;;;;;4949344;28;19971;-56
2022/04/05 11:57:58;;;;;;;;;;;;;;;;;;4955142;28;19928;-53
2022/04/05 12:00:23;;;;;;;;;;;;;;;;;;4979678;28;19925;-53
2022/04/05 12:02:49;;;;;;;;;;;;;;;;;;4948475;28;20027;-52
2022/04/05 12:05:14;;;;;;;;;;;;;;;;;;4955076;28;20303;-54
2022/04/05 12:07:39;;;;;;;;;;;;;;;;;;4951398;28;19928;-55
2022/04/05 12:10:04;;;;;;;;;;;;;;;;;;4955323;28;20059;-52
2022/04/05 12:12:29;;;;;;;;;;;;;;;;;;4944308;28;21792;-57
2022/04/05 12:14:54;;;;;;;;;;;;;;;;;;4958047;28;20636;-53
2022/04/05 12:17:19;;;;;;;;;;;;;;;;;;4922201;28;20020;-53
2022/04/05 12:19:45;;;;;;;;;;;;;;;;;;4897625;28;19921;-55
2022/04/05 12:22:10;;;;;;;;;;;;;;;;;;4885145;28;20117;-55
2022/04/05 12:24:35;;;;;;;;;;;;;;;;;;4882361;28;20597;-54
2022/04/05 12:27:00;;;;;;;;;;;;;;;;;;4956633;28;20002;-53
2022/04/05 12:29:25;;;;;;;;;;;;;;;;;;4982258;28;19920;-53
2022/04/05 12:31:50;;;;;;;;;;;;;;;;;;4985973;28;19932;-51
2022/04/05 12:34:15;;;;;;;;;;;;;;;;;;4990652;28;19921;-53
2022/04/05 12:36:41;;;;;;;;;;;;;;;;;;4989993;28;21516;-54
2022/04/05 12:39:06;;;;;;;;;;;;;;;;;;4992145;28;20150;-52
2022/04/05 12:41:31;;;;;;;;;;;;;;;;;;4983893;28;20054;-53
2022/04/05 12:43:56;;;;;;;;;;;;;;;;;;4999912;28;20479;-51
2022/04/05 12:46:21;;;;;;;;;;;;;;;;;;4984055;28;20788;-52
2022/04/05 12:48:47;;;;;;;;;;;;;;;;;;4968956;28;19927;-53
2022/04/05 12:51:12;;;;;;;;;;;;;;;;;;4970375;28;19967;-53
2022/04/05 12:53:38;;;;;;;;;;;;;;;;;;4982387;28;19994;-53
2022/04/05 12:56:03;;;;;;;;;;;;;;;;;;4980705;28;22416;-50
2022/04/05 12:58:28;;;;;;;;;;;;;;;;;;4954178;28;19925;-50
2022/04/05 13:00:53;;;;;;;;;;;;;;;;;;4985446;28;20379;-55
2022/04/05 13:03:18;;;;;;;;;;;;;;;;;;4959674;28;20655;-54
2022/04/05 13:08:27;;;;;;;;;;;;;;;;;;4963962;28;20015;-54
2022/04/05 13:10:52;;;;;;;;;;;;;;;;;;4959741;28;19943;-56
2022/04/05 13:13:18;;;;;;;;;;;;;;;;;;4927724;28;19921;-54
2022/04/05 13:15:43;;;;;;;;;;;;;;;;;;4961399;28;20015;-52
2022/04/05 13:18:10;;;;;;;;;;;;;;;;;;4993597;28;19948;-51
2022/04/05 13:20:36;;;;;;;;;;;;;;;;;;5004489;28;19920;-51
2022/04/05 13:23:01;;;;;;;;;;;;;;;;;;4999474;28;19920;-51
2022/04/05 13:25:26;;;;;;;;;;;;;;;;;;5011119;28;19917;-53
2022/04/05 13:27:51;;;;;;;;;;;;;;;;;;5021670;28;19994;-50
2022/04/05 13:30:16;;;;;;;;;;;;;;;;;;5026418;28;19970;-52
2022/04/05 13:32:41;;;;;;;;;;;;;;;;;;5035488;28;20022;-51
2022/04/05 13:35:06;;;;;;;;;;;;;;;;;;5032584;28;20688;-54
2022/04/05 13:37:33;;;;;;;;;;;;;;;;;;5024496;28;20217;-52
2022/04/05 13:39:59;;;;;;;;;;;;;;;;;;5039700;28;19948;-52
2022/04/05 13:42:24;;;;;;;;;;;;;;;;;;5031826;28;19991;-51
2022/04/05 13:44:50;;;;;;;;;;;;;;;;;;5030565;28;20256;-51
2022/04/05 13:47:15;;;;;;;;;;;;;;;;;;5033984;28;20280;-52
2022/04/05 13:49:44;;;;;;;;;;;;;;;;;;5033823;28;19927;-52
2022/04/05 13:52:10;;;;;;;;;;;;;;;;;;5033711;28;21706;-51
2022/04/05 13:54:35;;;;;;;;;;;;;;;;;;5024859;28;22024;-50
2022/04/05 13:57:01;;;;;;;;;;;;;;;;;;5036229;28;19920;-52
2022/04/05 13:59:26;;;;;;;;;;;;;;;;;;5033307;28;19928;-52
2022/04/05 14:01:51;;;;;;;;;;;;;;;;;;5025860;28;20296;-53
2022/04/05 14:04:16;;;;;;;;;;;;;;;;;;5017169;28;20447;-53
2022/04/05 14:06:42;;;;;;;;;;;;;;;;;;5027453;28;20399;-55
2022/04/05 14:09:07;;;;;;;;;;;;;;;;;;5031752;28;19999;-53
2022/04/05 14:11:32;;;;;;;;;;;;;;;;;;5029403;28;20341;-51
2022/04/05 14:13:57;;;;;;;;;;;;;;;;;;5038211;28;20467;-53
2022/04/05 14:16:22;;;;;;;;;;;;;;;;;;5039522;28;19917;-52
2022/04/05 14:18:47;;;;;;;;;;;;;;;;;;5034021;28;19929;-51
2022/04/05 14:21:12;;;;;;;;;;;;;;;;;;5035829;28;19920;-50
2022/04/05 14:23:42;;;;;;;;;;;;;;;;;;5032590;28;20429;-51
2022/04/05 14:26:07;;;;;;;;;;;;;;;;;;5036402;28;19913;-51
2022/04/05 14:28:32;;;;;;;;;;;;;;;;;;5041558;28;21804;-51
2022/04/05 14:30:57;;;;;;;;;;;;;;;;;;5043353;28;19967;-51
2022/04/05 14:33:22;;;;;;;;;;;;;;;;;;5035644;28;19913;-52
2022/04/05 14:35:47;;;;;;;;;;;;;;;;;;5026524;28;19921;-51
2022/04/05 14:38:12;;;;;;;;;;;;;;;;;;5021100;28;19921;-52
2022/04/05 14:40:37;;;;;;;;;;;;;;;;;;5032781;28;19967;-53
2022/04/05 14:43:03;;;;;;;;;;;;;;;;;;5032269;28;19940;-54
2022/04/05 14:45:28;;;;;;;;;;;;;;;;;;5032036;28;19921;-51
2022/04/05 14:47:53;;;;;;;;;;;;;;;;;;5041454;28;19948;-51
2022/04/05 14:50:18;;;;;;;;;;;;;;;;;;5035633;28;19920;-53
2022/04/05 14:52:44;;;;;;;;;;;;;;;;;;5036919;28;19929;-51
2022/04/05 14:55:10;;;;;;;;;;;;;;;;;;5043166;28;19986;-52
2022/04/05 14:57:35;;;;;;;;;;;;;;;;;;5035511;28;19921;-52
2022/04/05 15:00:00;;;;;;;;;;;;;;;;;;5036169;28;20341;-51
2022/04/05 15:02:25;;;;;;;;;;;;;;;;;;5043770;28;20272;-53
2022/04/05 15:04:50;;;;;;;;;;;;;;;;;;5047739;28;19964;-53
2022/04/05 15:07:15;;;;;;;;;;;;;;;;;;5047480;28;19959;-51
2022/04/05 15:09:40;;;;;;;;;;;;;;;;;;5046445;28;19939;-51
2022/04/05 15:12:05;;;;;;;;;;;;;;;;;;5032079;28;19932;-52
2022/04/05 15:14:31;;;;;;;;;;;;;;;;;;5043822;28;19917;-52
2022/04/05 15:16:56;;;;;;;;;;;;;;;;;;5051227;28;19921;-51
2022/04/05 15:19:24;;;;;;;;;;;;;;;;;;5046178;28;19916;-51
2022/04/05 15:21:49;;;;;;;;;;;;;;;;;;5047032;28;19921;-53
2022/04/05 15:24:14;;;;;;;;;;;;;;;;;;5040196;28;20338;-49
2022/04/05 15:26:39;;;;;;;;;;;;;;;;;;5047499;28;19920;-54
2022/04/05 15:29:04;;;;;;;;;;;;;;;;;;5054169;28;19939;-51
2022/04/05 15:31:29;;;;;;;;;;;;;;;;;;5048764;28;19952;-50
2022/04/05 15:33:55;;;;;;;;;;;;;;;;;;5042654;28;19921;-50
2022/04/05 15:36:20;;;;;;;;;;;;;;;;;;5049952;28;19913;-53
2022/04/05 15:38:45;;;;;;;;;;;;;;;;;;5055143;28;19917;-50
2022/04/05 15:41:10;;;;;;;;;;;;;;;;;;5049990;28;19943;-50
2022/04/05 15:43:35;;;;;;;;;;;;;;;;;;5048110;28;19935;-54
2022/04/05 15:46:02;;;;;;;;;;;;;;;;;;5052858;28;20348;-54
2022/04/05 15:48:27;;;;;;;;;;;;;;;;;;5053094;28;19956;-51
2022/04/05 15:50:53;;;;;;;;;;;;;;;;;;5055280;28;19919;-54
2022/04/05 15:53:18;;;;;;;;;;;;;;;;;;5057735;28;20268;-50
2022/04/05 15:55:43;;;;;;;;;;;;;;;;;;5056622;28;19955;-51
2022/04/05 15:58:08;;;;;;;;;;;;;;;;;;5055964;28;19921;-54
2022/04/05 16:00:33;;;;;;;;;;;;;;;;;;5054379;28;20285;-52
2022/04/05 16:02:58;;;;;;;;;;;;;;;;;;5053476;28;19920;-48
2022/04/05 16:05:24;;;;;;;;;;;;;;;;;;5051710;28;19928;-50
2022/04/05 16:07:50;;;;;;;;;;;;;;;;;;5055299;28;19916;-47
2022/04/05 16:10:15;;;;;;;;;;;;;;;;;;5049367;28;19963;-48
2022/04/05 16:12:40;;;;;;;;;;;;;;;;;;5055485;28;19968;-47
2022/04/05 16:15:05;;;;;;;;;;;;;;;;;;5051390;28;19990;-49
2022/04/05 16:17:30;;;;;;;;;;;;;;;;;;5052884;28;20314;-50
2022/04/05 16:19:55;;;;;;;;;;;;;;;;;;5056678;28;19913;-48
2022/04/05 16:22:21;;;;;;;;;;;;;;;;;;5057101;28;19909;-48
2022/04/05 16:24:47;;;;;;;;;;;;;;;;;;5057010;28;19931;-49
2022/04/05 16:27:12;;;;;;;;;;;;;;;;;;5056905;28;20373;-49
2022/04/05 16:29:37;;;;;;;;;;;;;;;;;;5055907;28;19909;-48
2022/04/05 16:32:03;;;;;;;;;;;;;;;;;;5056756;28;19966;-48
2022/04/05 16:34:28;;;;;;;;;;;;;;;;;;5056958;28;20007;-48
2022/04/05 16:36:53;;;;;;;;;;;;;;;;;;5056682;28;19913;-48